KNYL

Yuma MCAS / Yuma International Airport

Yuma, Arizona, USA
METAR KNYL 182257Z AUTO 16005KT 10SM CLR 41/14 A2981 RMK AO2 SLP089 T04110139 $
Observed Flight Rules
Aug-18 @ 22:57 UTC (50 minutes ago) Visual Flight Rules
Wind Visibility Clouds
160° at 5 knots 10 miles
  • Clear skies
Temperatures Readings
Current 41°C / 106°F
Dewpoint 14°C / 57°F
Humidity 20%
Altimeter 29.81" Hg
Pressure 1008.9 hPa
Elevation 65
METAR KNYL 182257Z AUTO 16005KT 10SM CLR 41/14 A2981 RMK AO2 SLP089 T04110139 $
Observed Flight Rules
Aug-18 @ 22:57 UTC
(50 minutes ago)
VFR
Wind Visibility
160° at 5 knots 10 miles
Clouds
  • Clear skies
Temperature Dewpoint
41°C / 106°F 14°C / 57°F
Humidity Altimeter Pressure
20% 29.81" Hg 1008.9 hPa